Airport Name : Uberaba

Other Name : Uberaba

ICAO : SBUR

IATA : UBA

FAA :

Latitude : -19.765

Longitude : -47.964778

Country : Brazil

Local Date and Time : 12/13/2017 6:22:00 PM

 

TAF (Terminal Aerodrome Forecast)

TAF SBUR 131600Z 1318/1406 08008KT 9999 SCT045 TX31/1318Z TN21/1405Z PROB30 1318/1324 TSRA BKN030 FEW045CB BECMG 1400/1402 05005KT FEW030 BECMG 1403/1405 CAVOK RMK PHH

 

METAR (METeorological Aerodrome Report)

SBUR 131900Z 17006KT 9999 FEW040 FEW043TCU 26/19 Q1015

SBUR 131800Z 07009KT 9999 SCT040 FEW043TCU 28/16 Q1016

SBUR 131700Z 07010KT 9999 SCT040 FEW043TCU 28/15 Q1016